Time;durP1;ratioP1;P1;durP2;ratioP2;P2;SDS_P1;SDS_P2;PMS_P1;PMS_P2;Temp;Humidity;BMP_temperature;BMP_pressure;BME280_temperature;BME280_humidity;BME280_pressure;Samples;Min_cycle;Max_cycle;Signal;HPM_P1;HPM_P2
2023/03/09 00:00:45;;;;;;;0.20;0.20;;;-3.80;99.90;;;;;;5055282;28;20021;-76
2023/03/09 00:03:15;;;;;;;0.22;0.22;;;-3.80;99.90;;;;;;5056016;28;20040;-76
2023/03/09 00:05:53;;;;;;;0.30;0.30;;;-3.70;99.90;;;;;;5036443;28;20029;-76
2023/03/09 00:08:19;;;;;;;0.28;0.28;;;-3.80;99.90;;;;;;5054849;28;20035;-76
2023/03/09 00:10:44;;;;;;;0.30;0.30;;;-3.80;99.90;;;;;;5054022;28;20024;-76
2023/03/09 00:13:10;;;;;;;0.20;0.20;;;-3.70;99.90;;;;;;5055283;28;20021;-76
2023/03/09 00:15:35;;;;;;;0.30;0.30;;;-3.80;99.90;;;;;;5037555;28;20028;-76
2023/03/09 00:18:01;;;;;;;0.30;0.30;;;-3.80;99.90;;;;;;5054545;28;20076;-76
2023/03/09 00:20:26;;;;;;;0.20;0.20;;;-3.70;99.90;;;;;;5055139;28;20025;-76
2023/03/09 00:22:54;;;;;;;0.20;0.20;;;-3.80;99.90;;;;;;5055997;28;20029;-76
2023/03/09 00:25:21;;;;;;;0.20;0.20;;;-3.80;99.90;;;;;;5055089;28;20103;-76
2023/03/09 00:27:49;;;;;;;0.25;0.25;;;-3.80;99.90;;;;;;5055751;28;20029;-76
2023/03/09 00:30:16;;;;;;;0.20;0.20;;;-3.80;99.90;;;;;;5036093;28;20056;-76
2023/03/09 00:32:42;;;;;;;0.20;0.20;;;-3.90;99.90;;;;;;5054801;28;20024;-76
2023/03/09 00:35:08;;;;;;;0.20;0.20;;;-4.00;99.90;;;;;;5054553;28;20021;-76
2023/03/09 00:37:37;;;;;;;0.30;0.30;;;-4.00;99.90;;;;;;5038458;28;20017;-76
2023/03/09 00:40:06;;;;;;;0.30;0.30;;;-4.00;99.90;;;;;;5036178;28;20033;-76
2023/03/09 00:42:32;;;;;;;0.28;0.28;;;-4.00;99.90;;;;;;5036933;28;20028;-76
2023/03/09 00:44:59;;;;;;;0.20;0.20;;;-4.00;99.90;;;;;;5037213;28;20194;-76
2023/03/09 00:47:24;;;;;;;0.20;0.20;;;-4.00;99.90;;;;;;5054289;28;20037;-76
2023/03/09 00:49:50;;;;;;;0.30;0.30;;;-4.00;99.90;;;;;;5035970;28;20025;-76
2023/03/09 00:52:16;;;;;;;0.20;0.20;;;-4.00;99.90;;;;;;5054732;28;20028;-76
2023/03/09 00:54:41;;;;;;;0.20;0.20;;;-4.10;99.90;;;;;;5036671;28;20112;-76
2023/03/09 00:57:07;;;;;;;0.20;0.20;;;-4.00;99.90;;;;;;5053945;28;20025;-76
2023/03/09 00:59:32;;;;;;;0.30;0.30;;;-4.00;99.90;;;;;;5054310;28;20436;-76
2023/03/09 01:01:59;;;;;;;0.25;0.25;;;-4.00;99.90;;;;;;5036148;28;20064;-76
2023/03/09 01:04:24;;;;;;;0.20;0.20;;;-4.00;99.90;;;;;;5053942;28;20029;-76
2023/03/09 01:06:53;;;;;;;0.20;0.20;;;-3.90;99.90;;;;;;5053511;28;20075;-76
2023/03/09 01:09:19;;;;;;;0.20;0.20;;;-3.90;99.90;;;;;;5036725;28;20025;-76
2023/03/09 01:11:44;;;;;;;0.20;0.20;;;-3.90;99.90;;;;;;5037012;28;20421;-76
2023/03/09 01:14:10;;;;;;;0.20;0.20;;;-3.90;99.90;;;;;;5054963;28;20493;-76
2023/03/09 01:16:35;;;;;;;0.20;0.20;;;-3.90;99.90;;;;;;5054073;28;20510;-76
2023/03/09 01:19:01;;;;;;;0.20;0.20;;;-4.00;99.90;;;;;;5054317;28;20536;-76
2023/03/09 01:21:26;;;;;;;0.20;0.20;;;-4.00;99.90;;;;;;5054810;28;20083;-76
2023/03/09 01:23:52;;;;;;;0.20;0.20;;;-4.00;99.90;;;;;;5036576;28;20025;-76
2023/03/09 01:26:18;;;;;;;0.20;0.20;;;-4.00;99.90;;;;;;5054101;28;20029;-76
2023/03/09 01:28:44;;;;;;;0.28;0.28;;;-4.10;99.90;;;;;;5053963;28;20056;-76
2023/03/09 01:31:11;;;;;;;0.32;0.32;;;-4.10;99.90;;;;;;5053397;28;20056;-76
2023/03/09 01:33:37;;;;;;;0.20;0.20;;;-4.10;99.90;;;;;;5057484;28;20017;-76
2023/03/09 01:36:05;;;;;;;0.30;0.30;;;-4.10;99.90;;;;;;5040673;28;20021;-76
2023/03/09 01:38:31;;;;;;;0.30;0.30;;;-4.10;99.90;;;;;;5058559;28;20021;-76
2023/03/09 01:40:57;;;;;;;0.20;0.20;;;-4.10;99.90;;;;;;5039584;28;20074;-76
2023/03/09 01:43:34;;;;;;;0.20;0.20;;;-4.10;99.90;;;;;;5041329;28;20485;-76
2023/03/09 01:46:22;;;;;;;0.30;0.30;;;-4.10;99.90;;;;;;5039189;28;20025;-76
2023/03/09 01:48:51;;;;;;;0.30;0.30;;;-4.20;99.90;;;;;;5057285;28;20033;-76
2023/03/09 01:51:18;;;;;;;0.20;0.20;;;-4.10;99.90;;;;;;5057817;28;20037;-76
2023/03/09 01:53:46;;;;;;;0.30;0.30;;;-4.20;99.90;;;;;;5057091;28;20029;-76
2023/03/09 01:56:16;;;;;;;0.20;0.20;;;-4.20;99.90;;;;;;5057022;28;20025;-76
2023/03/09 01:58:41;;;;;;;0.30;0.30;;;-4.20;99.90;;;;;;5057681;28;20048;-76
2023/03/09 02:01:09;;;;;;;0.30;0.30;;;-4.20;99.90;;;;;;5058601;28;20463;-76
2023/03/09 02:03:39;;;;;;;0.30;0.30;;;-4.20;99.90;;;;;;5057843;28;20036;-76
2023/03/09 02:06:17;;;;;;;0.30;0.30;;;-4.20;99.90;;;;;;5039878;28;20094;-76
2023/03/09 02:09:12;;;;;;;0.20;0.20;;;-4.20;99.90;;;;;;5039946;28;20025;-76
2023/03/09 02:11:38;;;;;;;0.22;0.22;;;-4.20;99.90;;;;;;5057447;28;20025;-76
2023/03/09 02:14:04;;;;;;;0.20;0.20;;;-4.20;99.90;;;;;;5057900;28;20100;-76
2023/03/09 02:16:30;;;;;;;0.30;0.30;;;-4.20;99.90;;;;;;5039196;28;20021;-76
2023/03/09 02:18:55;;;;;;;0.70;0.70;;;-4.20;99.90;;;;;;5056603;28;20021;-76
2023/03/09 02:21:38;;;;;;;0.40;0.40;;;-4.20;99.90;;;;;;5056459;28;20103;-76
2023/03/09 02:24:23;;;;;;;0.20;0.20;;;-4.20;99.90;;;;;;5039411;28;20037;-76
2023/03/09 02:26:56;;;;;;;0.30;0.30;;;-4.20;99.90;;;;;;5038241;28;20379;-76
2023/03/09 02:29:22;;;;;;;;;;;-4.20;99.90;;;;;;5057642;28;20028;-76
2023/03/09 02:31:48;;;;;;;0.28;0.28;;;-4.20;99.90;;;;;;5039475;28;19905;-76
2023/03/09 02:34:14;;;;;;;0.20;0.20;;;-4.20;99.90;;;;;;5057352;28;20032;-76
2023/03/09 02:36:39;;;;;;;0.30;0.30;;;-4.20;99.90;;;;;;5057062;28;20025;-76
2023/03/09 02:39:16;;;;;;;0.20;0.20;;;-4.20;99.90;;;;;;5057469;28;20534;-76
2023/03/09 02:41:42;;;;;;;0.30;0.30;;;-4.20;99.90;;;;;;5039264;28;20112;-76
2023/03/09 02:44:08;;;;;;;0.57;0.57;;;-4.30;99.90;;;;;;5055896;28;20463;-76
2023/03/09 02:46:34;;;;;;;1.67;1.58;;;-4.30;99.90;;;;;;5057064;28;20517;-76
2023/03/09 02:48:59;;;;;;;0.28;0.28;;;-4.30;99.90;;;;;;5057305;28;20041;-76
2023/03/09 02:51:25;;;;;;;0.75;0.75;;;-4.30;99.90;;;;;;5056484;28;20021;-75
2023/03/09 02:53:50;;;;;;;0.32;0.32;;;-4.30;99.90;;;;;;5056347;28;20562;-75
2023/03/09 02:56:16;;;;;;;0.20;0.20;;;-4.30;99.90;;;;;;5056275;28;20547;-75
2023/03/09 02:58:41;;;;;;;0.20;0.20;;;-4.30;99.90;;;;;;5038000;28;20025;-75
2023/03/09 03:01:07;;;;;;;0.30;0.30;;;-4.30;99.90;;;;;;5056159;28;20029;-76
2023/03/09 03:03:33;;;;;;;0.30;0.30;;;-4.30;99.90;;;;;;5056074;28;20033;-76
2023/03/09 03:05:59;;;;;;;0.20;0.20;;;-4.30;99.90;;;;;;5055180;28;20021;-76
2023/03/09 03:08:24;;;;;;;0.20;0.20;;;-4.20;99.90;;;;;;5037120;28;20059;-76
2023/03/09 03:10:50;;;;;;;0.30;0.30;;;-4.20;99.90;;;;;;5055078;28;20027;-76
2023/03/09 03:13:15;;;;;;;0.30;0.30;;;-4.20;99.90;;;;;;5055453;28;20092;-76
2023/03/09 03:15:41;;;;;;;0.28;0.28;;;-4.20;99.90;;;;;;5055605;28;20058;-76
2023/03/09 03:18:07;;;;;;;0.20;0.20;;;-4.20;99.90;;;;;;5055435;28;20104;-76
2023/03/09 03:20:32;;;;;;;0.20;0.20;;;-4.20;99.90;;;;;;5055621;28;20090;-76
2023/03/09 03:22:58;;;;;;;0.40;0.40;;;-4.20;99.90;;;;;;5055032;28;20025;-76
2023/03/09 03:25:23;;;;;;;0.20;0.20;;;-4.10;99.90;;;;;;5054784;28;20529;-76
2023/03/09 03:27:49;;;;;;;0.30;0.30;;;-4.10;99.90;;;;;;5054713;28;20024;-76
2023/03/09 03:30:15;;;;;;;0.20;0.20;;;-4.10;99.90;;;;;;5054358;28;20036;-76
2023/03/09 03:32:40;;;;;;;0.30;0.30;;;-4.10;99.90;;;;;;5055313;28;20021;-76
2023/03/09 03:35:07;;;;;;;0.20;0.20;;;-4.10;99.90;;;;;;5055837;28;20025;-76
2023/03/09 03:37:32;;;;;;;0.30;0.30;;;-4.10;99.90;;;;;;5055469;28;20505;-76
2023/03/09 03:39:58;;;;;;;0.30;0.30;;;-4.00;99.90;;;;;;5054442;28;20116;-76
2023/03/09 03:42:24;;;;;;;0.22;0.22;;;-4.00;99.90;;;;;;5054419;28;20096;-76
2023/03/09 03:44:49;;;;;;;0.20;0.20;;;-4.00;99.90;;;;;;5055215;28;20060;-76
2023/03/09 03:47:15;;;;;;;0.20;0.20;;;-4.00;99.90;;;;;;5060053;22;20045;-73
2023/03/09 03:49:40;;;;;;;0.20;0.20;;;-4.00;99.90;;;;;;5053768;28;20037;-72
2023/03/09 03:52:07;;;;;;;0.25;0.25;;;-3.90;99.90;;;;;;5053765;28;20025;-73
2023/03/09 03:54:33;;;;;;;0.30;0.30;;;-4.00;99.90;;;;;;5035868;28;20029;-72
2023/03/09 03:56:58;;;;;;;0.20;0.20;;;-4.00;99.90;;;;;;5035798;28;20028;-73
2023/03/09 03:59:24;;;;;;;0.25;0.25;;;-4.00;99.90;;;;;;5053671;28;20529;-73
2023/03/09 04:01:49;;;;;;;0.17;0.17;;;-4.00;99.90;;;;;;5053641;28;20024;-73
2023/03/09 04:04:15;;;;;;;0.20;0.20;;;-4.00;99.90;;;;;;5053861;28;20033;-72
2023/03/09 04:06:40;;;;;;;0.10;0.10;;;-4.10;99.90;;;;;;5053562;28;20405;-73
2023/03/09 04:09:06;;;;;;;0.20;0.20;;;-4.10;99.90;;;;;;5053442;28;20021;-73
2023/03/09 04:11:31;;;;;;;0.30;0.30;;;-4.10;99.90;;;;;;5053429;28;20048;-72
2023/03/09 04:13:57;;;;;;;0.20;0.20;;;-4.20;99.90;;;;;;5053700;28;20021;-73
2023/03/09 04:16:22;;;;;;;0.30;0.30;;;-4.20;99.90;;;;;;5053409;28;20065;-73
2023/03/09 04:18:48;;;;;;;0.20;0.20;;;-4.20;99.90;;;;;;5053286;28;20025;-73
2023/03/09 04:21:14;;;;;;;0.30;0.30;;;-4.20;99.90;;;;;;5053590;28;20116;-72
2023/03/09 04:23:39;;;;;;;0.30;0.30;;;-4.20;99.90;;;;;;5053507;28;20064;-73
2023/03/09 04:26:05;;;;;;;0.20;0.20;;;-4.30;99.90;;;;;;5053269;28;20033;-73
2023/03/09 04:28:31;;;;;;;0.20;0.20;;;-4.30;99.90;;;;;;5035323;28;20035;-73
2023/03/09 04:30:56;;;;;;;0.20;0.20;;;-4.40;99.90;;;;;;5053154;28;20414;-73
2023/03/09 04:33:22;;;;;;;0.28;0.28;;;-4.50;99.90;;;;;;5053316;28;20391;-73
2023/03/09 04:35:48;;;;;;;0.30;0.30;;;-4.50;99.90;;;;;;5053383;28;20531;-72
2023/03/09 04:38:14;;;;;;;0.20;0.20;;;-4.50;99.90;;;;;;5053032;28;20100;-73
2023/03/09 04:40:39;;;;;;;0.30;0.30;;;-4.60;99.90;;;;;;5053507;28;20139;-73
2023/03/09 04:43:05;;;;;;;0.20;0.20;;;-4.50;99.90;;;;;;5053036;28;20021;-74
2023/03/09 04:45:31;;;;;;;0.20;0.20;;;-4.60;99.90;;;;;;5053279;28;20036;-73
2023/03/09 04:47:57;;;;;;;0.30;0.30;;;-4.60;99.90;;;;;;5053218;28;20040;-73
2023/03/09 04:50:23;;;;;;;0.47;0.47;;;-4.60;99.90;;;;;;5052881;28;20051;-73
2023/03/09 04:52:49;;;;;;;0.30;0.30;;;-4.70;99.90;;;;;;5052930;28;20104;-73
2023/03/09 04:55:16;;;;;;;0.22;0.22;;;-4.60;99.90;;;;;;5035063;28;20021;-73
2023/03/09 04:57:41;;;;;;;0.25;0.25;;;-4.60;99.90;;;;;;5052810;28;20025;-73
2023/03/09 05:00:10;;;;;;;0.30;0.30;;;-4.60;99.90;;;;;;5052900;28;20367;-74
2023/03/09 05:02:37;;;;;;;0.40;0.40;;;-4.60;99.90;;;;;;5018860;28;20448;-73
2023/03/09 05:05:02;;;;;;;0.28;0.28;;;-4.50;99.90;;;;;;5053075;28;20025;-73
2023/03/09 05:07:28;;;;;;;0.20;0.20;;;-4.50;99.90;;;;;;5054870;28;20386;-74
2023/03/09 05:09:53;;;;;;;0.20;0.20;;;-4.50;99.90;;;;;;5056817;28;20033;-73
2023/03/09 05:12:19;;;;;;;0.30;0.30;;;-4.50;99.90;;;;;;5057102;28;20021;-73
2023/03/09 05:14:44;;;;;;;0.30;0.30;;;-4.40;99.90;;;;;;5056776;28;20033;-73
2023/03/09 05:17:10;;;;;;;0.20;0.20;;;-4.40;99.90;;;;;;5056646;28;20025;-74
2023/03/09 05:19:37;;;;;;;0.28;0.28;;;-4.40;99.90;;;;;;5056690;28;20028;-73
2023/03/09 05:22:03;;;;;;;0.30;0.30;;;-4.30;99.90;;;;;;5056645;28;20094;-73
2023/03/09 05:24:29;;;;;;;0.40;0.40;;;-4.30;99.90;;;;;;5056596;28;20061;-73
2023/03/09 05:26:54;;;;;;;0.30;0.30;;;-4.20;99.90;;;;;;5056531;28;20032;-74
2023/03/09 05:29:20;;;;;;;0.30;0.30;;;-4.20;99.90;;;;;;5056517;28;20021;-73
2023/03/09 05:31:46;;;;;;;0.20;0.20;;;-4.20;99.90;;;;;;5056373;28;20382;-73
2023/03/09 05:34:11;;;;;;;0.30;0.30;;;-4.20;99.90;;;;;;5056394;28;20029;-73
2023/03/09 05:36:37;;;;;;;0.30;0.30;;;-4.20;99.90;;;;;;5056402;28;20025;-73
2023/03/09 05:39:03;;;;;;;0.45;0.45;;;-4.10;99.90;;;;;;5056519;28;20025;-73
2023/03/09 05:41:28;;;;;;;0.40;0.40;;;-4.10;99.90;;;;;;5056241;28;20037;-73
2023/03/09 05:43:54;;;;;;;0.20;0.20;;;-4.10;99.90;;;;;;5056266;28;20096;-73
2023/03/09 05:46:19;;;;;;;0.20;0.20;;;-4.10;99.90;;;;;;5056218;28;20032;-73
2023/03/09 05:48:47;;;;;;;0.22;0.22;;;-4.10;99.90;;;;;;5056466;28;20068;-73
2023/03/09 05:51:13;;;;;;;0.28;0.28;;;-4.10;99.90;;;;;;5056075;28;20493;-73
2023/03/09 05:53:38;;;;;;;0.30;0.30;;;-4.00;99.90;;;;;;5056169;28;20025;-73
2023/03/09 05:56:05;;;;;;;0.20;0.20;;;-4.00;99.90;;;;;;5056557;28;20071;-73
2023/03/09 05:58:31;;;;;;;0.28;0.28;;;-4.00;99.90;;;;;;5056078;28;20021;-73
2023/03/09 06:00:56;;;;;;;0.20;0.20;;;-4.00;99.90;;;;;;5055946;28;20500;-73
2023/03/09 06:03:23;;;;;;;0.20;0.20;;;-4.00;99.90;;;;;;5037979;28;20505;-73
2023/03/09 06:05:58;;;;;;;0.20;0.20;;;-4.00;99.90;;;;;;5037968;28;20063;-73
2023/03/09 06:08:23;;;;;;;0.20;0.20;;;-3.90;99.90;;;;;;5037914;28;20025;-73
2023/03/09 06:10:49;;;;;;;0.25;0.25;;;-3.90;99.90;;;;;;5055886;28;20033;-74
2023/03/09 06:13:14;;;;;;;0.20;0.20;;;-3.90;99.90;;;;;;5055959;28;20433;-73
2023/03/09 06:15:41;;;;;;;0.30;0.30;;;-3.90;99.90;;;;;;5055630;28;20029;-73
2023/03/09 06:18:06;;;;;;;0.20;0.20;;;-3.90;99.90;;;;;;5054692;28;20028;-73
2023/03/09 06:20:32;;;;;;;0.30;0.30;;;-3.80;99.90;;;;;;5055437;28;20028;-73
2023/03/09 06:22:58;;;;;;;0.20;0.20;;;-3.80;99.90;;;;;;5055817;28;20021;-73
2023/03/09 06:25:23;;;;;;;0.20;0.20;;;-3.80;99.90;;;;;;5037614;28;20059;-73
2023/03/09 06:27:48;;;;;;;0.20;0.20;;;-3.80;99.90;;;;;;5055544;28;20049;-73
2023/03/09 06:30:14;;;;;;;0.28;0.28;;;-3.80;99.90;;;;;;5055311;28;20412;-73
2023/03/09 06:32:40;;;;;;;0.30;0.30;;;-3.80;99.90;;;;;;5055296;28;20028;-73
2023/03/09 06:35:06;;;;;;;0.20;0.20;;;-3.70;99.90;;;;;;5037367;28;20104;-73
2023/03/09 06:37:31;;;;;;;0.20;0.20;;;-3.70;99.90;;;;;;5055142;28;20022;-73
2023/03/09 06:39:57;;;;;;;0.20;0.20;;;-3.60;99.90;;;;;;5055198;28;20025;-73
2023/03/09 06:42:22;;;;;;;0.22;0.22;;;-3.60;99.90;;;;;;5055215;28;20025;-73
2023/03/09 06:44:49;;;;;;;0.20;0.20;;;-3.50;99.90;;;;;;5055113;28;20032;-74
2023/03/09 06:47:15;;;;;;;0.20;0.20;;;-3.50;99.90;;;;;;5037061;28;20486;-74
2023/03/09 06:49:42;;;;;;;0.20;0.20;;;-3.40;99.90;;;;;;5037076;28;20083;-73
2023/03/09 06:52:08;;;;;;;0.20;0.20;;;-3.40;99.90;;;;;;5055007;28;20021;-73
2023/03/09 06:54:33;;;;;;;0.20;0.20;;;-3.30;99.90;;;;;;5054909;28;20033;-73
2023/03/09 06:56:59;;;;;;;0.32;0.32;;;-3.30;99.90;;;;;;5054820;28;20017;-73
2023/03/09 06:59:28;;;;;;;0.20;0.20;;;-3.30;99.90;;;;;;5054829;28;20029;-73
2023/03/09 07:01:54;;;;;;;0.20;0.20;;;-3.30;99.90;;;;;;5054767;28;20028;-74
2023/03/09 07:04:19;;;;;;;0.20;0.20;;;-3.30;99.90;;;;;;5055282;28;20035;-73
2023/03/09 07:06:45;;;;;;;0.30;0.30;;;-3.30;99.90;;;;;;5054659;28;20028;-73
2023/03/09 07:09:10;;;;;;;0.30;0.30;;;-3.20;99.90;;;;;;5054610;28;20029;-73
2023/03/09 07:11:36;;;;;;;0.30;0.30;;;-3.20;99.90;;;;;;5054534;28;20029;-74
2023/03/09 07:14:01;;;;;;;0.30;0.30;;;-3.20;99.90;;;;;;5054815;28;20356;-73
2023/03/09 07:16:27;;;;;;;0.20;0.20;;;-3.10;99.90;;;;;;5054510;28;20017;-73
2023/03/09 07:18:54;;;;;;;0.30;0.30;;;-3.10;99.90;;;;;;5054429;28;20017;-73
2023/03/09 07:21:19;;;;;;;0.47;0.47;;;-3.00;99.90;;;;;;5054393;28;20024;-73
2023/03/09 07:23:45;;;;;;;0.20;0.20;;;-2.80;99.90;;;;;;5054883;28;20082;-73
2023/03/09 07:26:10;;;;;;;0.30;0.30;;;-2.60;99.90;;;;;;5054340;28;20112;-73
2023/03/09 07:28:36;;;;;;;0.15;0.15;;;-2.40;99.90;;;;;;5054177;28;20478;-73
2023/03/09 07:31:12;;;;;;;0.20;0.20;;;-2.10;99.90;;;;;;5053814;28;20498;-73
2023/03/09 07:33:38;;;;;;;0.25;0.25;;;-1.90;99.90;;;;;;5054462;28;20385;-73
2023/03/09 07:36:05;;;;;;;1.13;1.13;;;-1.60;99.90;;;;;;5054431;28;20021;-73
2023/03/09 07:38:30;;;;;;;0.30;0.30;;;-1.40;99.90;;;;;;5053983;28;20021;-73
2023/03/09 07:41:00;;;;;;;0.20;0.20;;;-1.20;99.90;;;;;;5054323;28;20033;-73
2023/03/09 07:43:26;;;;;;;0.20;0.20;;;-1.00;99.90;;;;;;5053953;28;20389;-74
2023/03/09 07:45:52;;;;;;;0.22;0.22;;;-0.90;99.90;;;;;;5054244;28;20075;-73
2023/03/09 07:48:18;;;;;;;0.28;0.28;;;-0.90;99.90;;;;;;5053734;28;20482;-73
2023/03/09 07:50:44;;;;;;;0.20;0.20;;;-1.00;99.90;;;;;;5053823;28;20440;-73
2023/03/09 07:53:10;;;;;;;0.30;0.30;;;-1.00;99.90;;;;;;5053663;28;20111;-73
2023/03/09 07:55:36;;;;;;;0.30;0.30;;;-1.00;99.90;;;;;;5054032;28;20067;-73
2023/03/09 07:58:02;;;;;;;0.30;0.30;;;-0.90;99.90;;;;;;5035815;28;20393;-74
2023/03/09 08:00:28;;;;;;;0.20;0.20;;;-0.90;99.90;;;;;;5053768;28;20035;-74
2023/03/09 08:02:55;;;;;;;0.20;0.20;;;-0.70;99.90;;;;;;5035771;28;20115;-73
2023/03/09 08:05:21;;;;;;;0.20;0.20;;;-0.60;99.90;;;;;;5036588;28;20351;-73
2023/03/09 08:07:47;;;;;;;0.20;0.20;;;-0.50;99.90;;;;;;5053715;28;20032;-74
2023/03/09 08:10:14;;;;;;;1.55;1.38;;;-0.50;99.90;;;;;;5053759;28;20500;-73
2023/03/09 08:12:42;;;;;;;0.20;0.20;;;-0.40;99.90;;;;;;5035509;28;20021;-73
2023/03/09 08:15:08;;;;;;;0.32;0.32;;;-0.30;99.90;;;;;;5035578;28;20025;-73
2023/03/09 08:17:34;;;;;;;0.20;0.20;;;-0.20;99.90;;;;;;5053313;28;20036;-73
2023/03/09 08:19:59;;;;;;;0.22;0.22;;;-0.10;99.90;;;;;;5053629;28;20386;-73
2023/03/09 08:22:25;;;;;;;0.17;0.17;;;0.10;99.90;;;;;;5053333;28;20029;-73
2023/03/09 08:24:51;;;;;;;0.20;0.20;;;0.20;99.90;;;;;;5053291;28;20033;-73
2023/03/09 08:27:16;;;;;;;0.10;0.10;;;0.40;99.90;;;;;;5053170;28;20095;-74
2023/03/09 08:29:42;;;;;;;0.20;0.20;;;0.70;99.90;;;;;;5053133;28;20036;-73
2023/03/09 08:32:09;;;;;;;0.20;0.20;;;0.80;99.90;;;;;;5053192;28;20025;-73
2023/03/09 08:34:35;;;;;;;0.20;0.20;;;0.90;99.90;;;;;;5053136;28;20031;-74
2023/03/09 08:37:00;;;;;;;0.28;0.28;;;1.10;99.90;;;;;;5053058;28;20029;-73
2023/03/09 08:39:26;;;;;;;0.20;0.20;;;1.20;99.90;;;;;;5053352;28;20021;-73
2023/03/09 08:41:52;;;;;;;0.20;0.20;;;1.30;99.90;;;;;;5052370;28;20036;-73
2023/03/09 08:44:18;;;;;;;0.30;0.30;;;1.40;99.90;;;;;;5053022;28;20029;-73
2023/03/09 08:46:43;;;;;;;0.30;0.30;;;1.60;99.90;;;;;;5053560;28;20025;-73
2023/03/09 08:49:09;;;;;;;0.20;0.20;;;1.80;99.90;;;;;;5052854;28;20033;-74
2023/03/09 08:51:34;;;;;;;0.20;0.20;;;2.00;99.90;;;;;;5053425;28;20036;-73
2023/03/09 08:54:00;;;;;;;0.20;0.20;;;2.20;99.90;;;;;;5052946;28;20036;-73
2023/03/09 08:56:26;;;;;;;0.20;0.20;;;2.40;99.90;;;;;;5052884;28;20033;-73
2023/03/09 08:58:52;;;;;;;0.20;0.20;;;2.50;99.90;;;;;;5053071;28;20032;-74
2023/03/09 09:01:17;;;;;;;0.20;0.20;;;2.70;99.90;;;;;;5052870;28;20394;-74
2023/03/09 09:03:43;;;;;;;0.22;0.22;;;2.80;99.90;;;;;;5052885;28;20478;-73
2023/03/09 09:06:12;;;;;;;0.20;0.20;;;3.00;99.90;;;;;;5034981;28;20471;-73
2023/03/09 09:08:38;;;;;;;0.20;0.20;;;3.20;99.90;;;;;;5052909;28;20033;-74
2023/03/09 09:11:09;;;;;;;0.20;0.20;;;3.30;99.90;;;;;;5052984;28;20039;-73
2023/03/09 09:13:36;;;;;;;0.20;0.20;;;3.50;99.90;;;;;;5052763;28;20021;-73
2023/03/09 09:16:05;;;;;;;0.98;0.98;;;3.80;99.90;;;;;;5052749;28;20104;-73
2023/03/09 09:18:32;;;;;;;0.30;0.30;;;4.00;99.90;;;;;;5052644;28;20048;-74
2023/03/09 09:20:58;;;;;;;0.20;0.20;;;4.30;99.90;;;;;;5052718;28;20031;-73
2023/03/09 09:23:23;;;;;;;0.30;0.30;;;4.50;99.90;;;;;;5034871;28;20456;-73
2023/03/09 09:25:56;;;;;;;0.20;0.20;;;4.70;99.90;;;;;;5034788;28;20029;-74
2023/03/09 09:28:23;;;;;;;2.10;1.98;;;4.90;99.90;;;;;;5052819;28;20021;-74
2023/03/09 09:31:07;;;;;;;8.80;8.18;;;5.10;99.90;;;;;;5052492;28;20474;-73
2023/03/09 09:33:34;;;;;;;0.28;0.28;;;5.30;99.90;;;;;;5034766;28;20032;-74
2023/03/09 09:36:02;;;;;;;0.20;0.20;;;5.50;99.90;;;;;;5052869;28;20029;-73
2023/03/09 09:38:30;;;;;;;0.95;0.95;;;5.50;99.90;;;;;;5052399;28;20067;-74
2023/03/09 09:40:59;;;;;;;3.80;3.60;;;5.50;99.90;;;;;;5052500;28;20040;-74
2023/03/09 09:43:25;;;;;;;0.25;0.25;;;5.40;99.90;;;;;;5052771;28;20083;-73
2023/03/09 09:45:55;;;;;;;0.20;0.20;;;5.60;99.90;;;;;;5052489;28;20025;-73
2023/03/09 09:48:22;;;;;;;0.20;0.20;;;5.90;99.90;;;;;;5052537;28;20040;-74
2023/03/09 09:51:03;;;;;;;0.30;0.30;;;6.10;99.90;;;;;;5052365;28;20470;-74
2023/03/09 09:53:59;;;;;;;0.30;0.30;;;6.20;99.90;;;;;;5054365;28;20028;-73
2023/03/09 09:56:36;;;;;;;12.05;10.88;;;6.20;99.90;;;;;;5056490;28;20116;-74
2023/03/09 09:59:10;;;;;;;6.28;5.88;;;6.20;99.90;;;;;;5055967;28;20021;-74
2023/03/09 10:01:52;;;;;;;;;;;6.10;99.90;;;;;;5056959;28;20035;-73
2023/03/09 10:04:27;;;;;;;0.20;0.20;;;6.10;99.90;;;;;;5056206;28;19905;-73
2023/03/09 10:06:55;;;;;;;0.20;0.20;;;6.20;99.90;;;;;;5055938;28;20071;-74
2023/03/09 10:09:25;;;;;;;0.20;0.20;;;6.20;99.90;;;;;;5055803;28;20474;-73
2023/03/09 10:11:55;;;;;;;0.10;0.10;;;6.30;99.90;;;;;;5037848;28;20025;-73
2023/03/09 10:14:47;;;;;;;0.25;0.25;;;6.40;99.90;;;;;;5055997;28;20032;-73
2023/03/09 10:17:41;;;;;;;0.10;0.10;;;6.60;99.90;;;;;;5055893;28;20558;-74
2023/03/09 10:20:14;;;;;;;;;;;6.70;99.90;;;;;;5051853;28;20500;-73
2023/03/09 10:22:41;;;;;;;0.20;0.20;;;6.70;99.90;;;;;;5055356;28;20365;-73
2023/03/09 10:25:11;;;;;;;0.20;0.20;;;6.80;99.90;;;;;;5055505;28;20029;-73
2023/03/09 10:28:28;;;;;;;0.20;0.20;;;6.80;99.90;;;;;;5055602;28;20385;-73
2023/03/09 10:31:01;;;;;;;0.20;0.20;;;6.90;99.90;;;;;;5038154;28;20398;-74
2023/03/09 10:33:49;;;;;;;0.20;0.20;;;6.90;99.90;;;;;;5055398;28;20433;-73
2023/03/09 10:36:29;;;;;;;0.20;0.20;;;7.10;99.90;;;;;;5055568;28;20040;-73
2023/03/09 10:39:01;;;;;;;0.20;0.20;;;7.00;99.90;;;;;;5055261;28;20029;-74
2023/03/09 10:41:28;;;;;;;0.20;0.20;;;7.10;99.90;;;;;;5037379;28;20029;-73
2023/03/09 10:43:57;;;;;;;0.20;0.20;;;7.50;99.90;;;;;;5055156;28;20104;-73
2023/03/09 10:46:24;;;;;;;0.20;0.20;;;8.00;99.90;;;;;;5055105;28;20017;-73
2023/03/09 10:49:09;;;;;;;0.20;0.20;;;8.20;99.90;;;;;;5054841;28;20036;-73
2023/03/09 10:51:43;;;;;;;0.28;0.28;;;8.10;99.90;;;;;;5055501;28;20125;-73
2023/03/09 10:54:27;;;;;;;0.20;0.20;;;8.00;99.90;;;;;;5055559;28;20021;-73
2023/03/09 10:56:53;;;;;;;0.20;0.20;;;7.70;99.90;;;;;;5055227;28;20021;-74
2023/03/09 10:59:21;;;;;;;0.20;0.20;;;7.70;99.90;;;;;;5037020;28;20032;-73
2023/03/09 11:01:49;;;;;;;0.10;0.10;;;7.60;99.90;;;;;;5055069;28;20541;-73
2023/03/09 11:04:23;;;;;;;0.20;0.20;;;7.60;99.90;;;;;;5054280;28;20033;-74
2023/03/09 11:06:52;;;;;;;0.28;0.28;;;7.50;99.90;;;;;;5054694;28;20397;-73
2023/03/09 11:09:30;;;;;;;0.13;0.13;;;7.30;99.90;;;;;;5054659;28;20024;-73
2023/03/09 11:12:18;;;;;;;0.20;0.20;;;7.10;99.90;;;;;;5054792;28;20021;-73
2023/03/09 11:14:54;;;;;;;0.20;0.20;;;7.00;99.90;;;;;;5054875;28;20021;-73
2023/03/09 11:17:38;;;;;;;0.20;0.20;;;7.10;99.90;;;;;;5055213;28;20394;-74
2023/03/09 11:20:26;;;;;;;0.20;0.20;;;7.50;99.90;;;;;;5054473;28;20433;-73
2023/03/09 11:22:51;;;;;;;0.20;0.20;;;7.80;99.90;;;;;;5054709;28;20100;-74
2023/03/09 11:26:02;;;;;;;0.20;0.20;;;8.00;99.90;;;;;;5054361;28;20101;-74
2023/03/09 11:28:36;;;;;;;0.30;0.30;;;8.10;99.90;;;;;;4973596;28;20027;-74
2023/03/09 11:31:01;;;;;;;0.20;0.20;;;8.30;99.90;;;;;;4957410;28;20034;-73
2023/03/09 11:33:29;;;;;;;0.20;0.20;;;8.40;99.90;;;;;;5016614;28;20036;-73
2023/03/09 11:35:55;;;;;;;0.20;0.20;;;8.60;99.90;;;;;;5054444;28;20032;-73
2023/03/09 11:38:23;;;;;;;0.20;0.20;;;8.80;99.90;;;;;;5054053;28;20031;-74
2023/03/09 11:41:05;;;;;;;0.20;0.20;;;8.70;99.90;;;;;;5054067;28;20025;-74
2023/03/09 11:43:38;;;;;;;0.20;0.20;;;8.80;99.90;;;;;;5036208;28;20025;-73
2023/03/09 11:46:10;;;;;;;0.25;0.25;;;8.40;99.90;;;;;;5054211;28;20036;-73
2023/03/09 11:48:46;;;;;;;0.20;0.20;;;8.00;99.90;;;;;;5053849;28;20502;-74
2023/03/09 11:51:25;;;;;;;0.20;0.20;;;7.60;99.90;;;;;;5036022;28;20029;-73
2023/03/09 11:54:12;;;;;;;0.20;0.20;;;7.40;99.90;;;;;;5054416;28;20490;-73
2023/03/09 11:56:40;;;;;;;0.20;0.20;;;7.30;99.90;;;;;;5053774;28;20025;-73
2023/03/09 11:59:22;;;;;;;0.20;0.20;;;7.30;99.90;;;;;;5053938;28;20017;-73
2023/03/09 12:01:58;;;;;;;0.20;0.20;;;7.40;99.90;;;;;;5053945;28;20482;-73
2023/03/09 12:04:24;;;;;;;0.20;0.20;;;7.40;99.90;;;;;;5053608;28;20029;-73
2023/03/09 12:07:06;;;;;;;0.20;0.20;;;7.60;99.90;;;;;;5054122;28;20104;-73
2023/03/09 12:09:47;;;;;;;0.20;0.20;;;8.00;99.90;;;;;;5035689;28;20086;-73
2023/03/09 12:12:53;;;;;;;0.20;0.20;;;8.50;99.90;;;;;;5053465;28;20029;-74
2023/03/09 12:15:34;;;;;;;0.17;0.17;;;8.80;99.90;;;;;;5054000;28;20044;-73
2023/03/09 12:18:03;;;;;;;0.20;0.20;;;8.80;99.90;;;;;;5052756;28;20017;-74
2023/03/09 12:20:32;;;;;;;0.20;0.20;;;9.30;99.90;;;;;;5035523;28;20102;-74
2023/03/09 12:22:57;;;;;;;0.20;0.20;;;9.00;99.90;;;;;;5053330;28;20032;-74
2023/03/09 12:25:25;;;;;;;0.20;0.20;;;8.70;99.90;;;;;;5053564;28;20390;-73
2023/03/09 12:28:02;;;;;;;0.20;0.20;;;8.50;99.90;;;;;;5035338;28;20074;-74
2023/03/09 12:30:30;;;;;;;0.20;0.20;;;8.50;99.90;;;;;;5053212;28;20040;-74
2023/03/09 12:33:00;;;;;;;0.20;0.20;;;8.80;99.90;;;;;;5053461;28;20028;-73
2023/03/09 12:35:26;;;;;;;0.20;0.20;;;9.20;99.90;;;;;;5053143;28;20440;-73
2023/03/09 12:37:56;;;;;;;0.20;0.20;;;9.10;99.90;;;;;;5053018;28;20029;-74
2023/03/09 12:40:31;;;;;;;0.20;0.20;;;8.90;99.90;;;;;;5035250;28;20078;-73
2023/03/09 12:43:18;;;;;;;0.20;0.20;;;8.90;99.90;;;;;;5053109;28;20032;-73
2023/03/09 12:45:46;;;;;;;0.20;0.20;;;8.80;99.90;;;;;;5052952;28;20025;-73
2023/03/09 12:48:25;;;;;;;0.20;0.20;;;8.80;99.90;;;;;;5052877;28;20037;-74
2023/03/09 12:50:59;;;;;;;0.20;0.20;;;8.80;99.90;;;;;;5052909;28;20033;-74
2023/03/09 12:53:32;;;;;;;0.20;0.20;;;8.50;99.90;;;;;;5053575;28;20474;-73
2023/03/09 12:56:03;;;;;;;0.20;0.20;;;8.50;99.90;;;;;;5035118;28;20398;-73
2023/03/09 12:58:36;;;;;;;0.20;0.20;;;8.60;99.90;;;;;;5052964;28;20028;-74